Time;durP1;ratioP1;P1;durP2;ratioP2;P2;SDS_P1;SDS_P2;PMS_P1;PMS_P2;Temp;Humidity;BMP_temperature;BMP_pressure;BME280_temperature;BME280_humidity;BME280_pressure;Samples;Min_cycle;Max_cycle;Signal;HPM_P1;HPM_P2
2022/11/04 00:00:23;;;;;;;3.25;1.73;;;;;;;;;;1027140;28;20027;-78
2022/11/04 00:00:54;;;;;;;5.53;2.45;;;;;;;;;;1026989;28;20046;-78
2022/11/04 00:01:25;;;;;;;4.07;2.00;;;;;;;;;;1027108;28;20030;-78
2022/11/04 00:01:57;;;;;;;4.47;2.58;;;;;;;;;;1030454;28;20029;-78
2022/11/04 00:02:27;;;;;;;3.53;2.20;;;;;;;;;;1031055;28;20408;-78
2022/11/04 00:02:58;;;;;;;4.53;2.45;;;;;;;;;;1030729;28;20425;-78
2022/11/04 00:03:29;;;;;;;2.75;2.03;;;;;;;;;;1031019;28;20018;-78
2022/11/04 00:04:00;;;;;;;3.85;2.15;;;;;;;;;;1026688;28;20137;-79
2022/11/04 00:04:31;;;;;;;4.35;1.70;;;;;;;;;;1026769;28;20019;-79
2022/11/04 00:05:02;;;;;;;2.40;1.80;;;;;;;;;;1030852;28;20453;-78
2022/11/04 00:05:33;;;;;;;3.70;1.90;;;;;;;;;;1030474;28;20080;-78
2022/11/04 00:06:05;;;;;;;3.97;1.95;;;;;;;;;;1030662;28;20042;-78
2022/11/04 00:06:36;;;;;;;3.67;2.10;;;;;;;;;;1030228;28;20023;-78
2022/11/04 00:08:22;;;;;;;4.30;2.65;;;;;;;;;;1026655;28;20050;-78
2022/11/04 00:08:51;;;;;;;3.58;2.40;;;;;;;;;;1030916;28;20049;-78
2022/11/04 00:09:24;;;;;;;4.10;2.03;;;;;;;;;;1031066;28;20038;-78
2022/11/04 00:09:55;;;;;;;3.65;2.30;;;;;;;;;;1030275;28;20022;-78
2022/11/04 00:12:23;;;;;;;2.42;1.90;;;;;;;;;;1026886;28;20106;-79
2022/11/04 00:12:23;;;;;;;4.53;2.33;;;;;;;;;;1033520;28;20543;-78
2022/11/04 00:12:54;;;;;;;3.05;1.73;;;;;;;;;;1031012;28;20034;-78
2022/11/04 00:13:28;;;;;;;4.03;1.95;;;;;;;;;;1031051;28;20019;-78
2022/11/04 00:13:59;;;;;;;3.20;1.98;;;;;;;;;;1030716;28;20032;-79
2022/11/04 00:14:30;;;;;;;4.90;2.22;;;;;;;;;;1030325;28;20033;-78
2022/11/04 00:17:17;;;;;;;3.65;2.03;;;;;;;;;;1030044;28;20022;-78
2022/11/04 00:17:31;;;;;;;5.05;2.33;;;;;;;;;;1030839;28;20045;-79
2022/11/04 00:18:02;;;;;;;5.05;1.85;;;;;;;;;;1030440;28;20101;-78
2022/11/04 00:18:35;;;;;;;3.13;1.67;;;;;;;;;;1030904;28;20536;-78
2022/11/04 00:19:06;;;;;;;3.63;2.85;;;;;;;;;;1026703;28;20026;-78
2022/11/04 00:28:54;;;;;;;2.63;2.15;;;;;;;;;;1027978;28;20046;-78
2022/11/04 00:29:25;;;;;;;3.63;2.42;;;;;;;;;;1031098;28;20054;-77
2022/11/04 00:29:56;;;;;;;5.47;2.88;;;;;;;;;;1030396;28;20525;-77
2022/11/04 00:30:27;;;;;;;5.35;2.17;;;;;;;;;;1030780;28;20038;-77
2022/11/04 00:33:24;;;;;;;5.85;3.20;;;;;;;;;;1030284;28;20440;-76
2022/11/04 00:33:29;;;;;;;2.83;2.13;;;;;;;;;;1030999;28;20658;-76
2022/11/04 00:34:00;;;;;;;3.85;2.95;;;;;;;;;;1030752;28;20394;-77
2022/11/04 00:34:31;;;;;;;4.63;2.50;;;;;;;;;;1030707;28;20031;-76
2022/11/04 00:35:02;;;;;;;4.63;2.13;;;;;;;;;;1030496;28;20065;-77
2022/11/04 00:35:33;;;;;;;5.57;3.05;;;;;;;;;;1030405;28;20132;-77
2022/11/04 00:36:04;;;;;;;3.78;2.63;;;;;;;;;;1030644;28;20080;-78
2022/11/04 00:36:34;;;;;;;6.28;3.47;;;;;;;;;;1034495;28;20032;-77
2022/11/04 00:37:05;;;;;;;4.63;3.67;;;;;;;;;;1034632;28;20025;-78
2022/11/04 00:37:37;;;;;;;6.95;3.85;;;;;;;;;;1030286;28;20059;-77
2022/11/04 00:38:08;;;;;;;4.80;3.13;;;;;;;;;;1030637;28;20026;-76
2022/11/04 00:38:39;;;;;;;5.15;3.90;;;;;;;;;;1030578;28;20169;-78
2022/11/04 00:39:10;;;;;;;4.47;3.30;;;;;;;;;;1030399;28;20030;-77
2022/11/04 00:39:41;;;;;;;5.35;3.08;;;;;;;;;;1030885;28;20022;-77
2022/11/04 00:40:14;;;;;;;6.88;2.85;;;;;;;;;;1030810;28;20019;-77
2022/11/04 00:40:45;;;;;;;6.65;4.13;;;;;;;;;;1030318;28;20085;-78
2022/11/04 00:41:25;;;;;;;4.95;3.50;;;;;;;;;;1030360;28;20019;-77
2022/11/04 00:41:56;;;;;;;5.63;3.63;;;;;;;;;;1026472;28;20027;-76
2022/11/04 00:42:27;;;;;;;6.97;4.10;;;;;;;;;;1027735;28;20035;-77
2022/11/04 00:42:58;;;;;;;5.30;3.08;;;;;;;;;;1030341;28;20026;-77
2022/11/04 00:43:29;;;;;;;4.25;3.35;;;;;;;;;;1026508;28;20030;-77
2022/11/04 00:44:01;;;;;;;7.85;3.42;;;;;;;;;;1030212;28;20122;-78
2022/11/04 00:44:32;;;;;;;3.30;2.85;;;;;;;;;;1030249;28;20129;-78
2022/11/04 00:45:03;;;;;;;8.88;3.35;;;;;;;;;;1030636;28;20011;-76
2022/11/04 00:45:34;;;;;;;3.53;2.28;;;;;;;;;;1026716;28;20517;-77
2022/11/04 00:46:05;;;;;;;3.88;2.55;;;;;;;;;;1031095;28;20018;-78
2022/11/04 00:46:36;;;;;;;4.05;2.58;;;;;;;;;;1034485;28;20698;-76
2022/11/04 00:47:07;;;;;;;6.90;3.08;;;;;;;;;;1034677;28;20699;-77
2022/11/04 00:47:38;;;;;;;4.28;2.85;;;;;;;;;;1032127;28;20026;-76
2022/11/04 00:48:09;;;;;;;7.00;3.67;;;;;;;;;;1029948;28;20460;-77
2022/11/04 00:48:40;;;;;;;3.55;2.20;;;;;;;;;;1030473;28;20026;-76
2022/11/04 00:49:12;;;;;;;4.03;2.72;;;;;;;;;;1030409;28;20022;-77
2022/11/04 00:49:43;;;;;;;4.22;2.75;;;;;;;;;;1030944;28;20014;-77
2022/11/04 00:50:14;;;;;;;3.30;2.53;;;;;;;;;;1034393;28;20029;-77
2022/11/04 00:50:45;;;;;;;4.00;2.90;;;;;;;;;;1030493;28;20072;-78
2022/11/04 00:51:16;;;;;;;2.50;2.00;;;;;;;;;;1030082;28;20121;-77
2022/11/04 00:51:47;;;;;;;3.47;2.00;;;;;;;;;;1030194;28;20474;-78
2022/11/04 00:52:17;;;;;;;4.80;2.33;;;;;;;;;;1026610;28;20636;-77
2022/11/04 00:52:48;;;;;;;2.95;2.00;;;;;;;;;;1034235;28;20053;-78
2022/11/04 00:53:19;;;;;;;2.80;1.90;;;;;;;;;;1034303;28;20010;-77
2022/11/04 00:53:50;;;;;;;2.85;1.75;;;;;;;;;;1030458;28;20081;-77
2022/11/04 00:54:21;;;;;;;5.05;1.85;;;;;;;;;;1030518;28;20034;-76
2022/11/04 00:54:52;;;;;;;2.55;1.67;;;;;;;;;;1030280;28;20018;-77
2022/11/04 00:55:23;;;;;;;6.28;2.20;;;;;;;;;;1030527;28;20639;-77
2022/11/04 00:55:58;;;;;;;2.25;1.35;;;;;;;;;;1030301;28;20131;-77
2022/11/04 00:56:29;;;;;;;2.55;1.33;;;;;;;;;;1030389;28;20484;-77
2022/11/04 00:57:00;;;;;;;2.53;1.42;;;;;;;;;;1030501;28;20018;-77
2022/11/04 00:57:31;;;;;;;4.53;1.50;;;;;;;;;;1030250;28;20106;-77
2022/11/04 00:58:02;;;;;;;4.20;1.60;;;;;;;;;;1030395;28;20027;-77
2022/11/04 00:58:33;;;;;;;2.67;1.40;;;;;;;;;;1030472;28;20014;-77
2022/11/04 00:59:04;;;;;;;3.90;1.50;;;;;;;;;;1030357;28;20014;-77
2022/11/04 00:59:35;;;;;;;2.63;1.42;;;;;;;;;;1030153;28;20664;-77
2022/11/04 01:00:06;;;;;;;1.33;1.20;;;;;;;;;;1030732;28;20085;-78
2022/11/04 01:00:38;;;;;;;2.10;1.20;;;;;;;;;;1030331;28;20086;-77
2022/11/04 01:01:11;;;;;;;4.63;2.03;;;;;;;;;;1030200;28;20064;-77
2022/11/04 01:01:42;;;;;;;2.95;1.42;;;;;;;;;;1030444;28;20102;-77
2022/11/04 01:02:13;;;;;;;1.38;1.00;;;;;;;;;;1030358;28;20041;-77
2022/11/04 01:02:44;;;;;;;1.88;1.02;;;;;;;;;;1030858;28;20030;-77
2022/11/04 01:03:15;;;;;;;1.75;1.20;;;;;;;;;;1030165;28;20497;-77
2022/11/04 01:03:46;;;;;;;2.20;1.10;;;;;;;;;;1030444;28;20026;-78
2022/11/04 01:04:17;;;;;;;5.40;1.50;;;;;;;;;;1026176;28;20030;-77
2022/11/04 01:04:48;;;;;;;2.85;1.20;;;;;;;;;;1027082;28;20027;-77
2022/11/04 01:05:19;;;;;;;1.35;0.70;;;;;;;;;;1030225;28;20061;-78
2022/11/04 01:05:50;;;;;;;1.58;1.20;;;;;;;;;;1026403;28;20061;-78
2022/11/04 01:06:22;;;;;;;1.10;1.00;;;;;;;;;;1026880;28;20757;-76
2022/11/04 01:06:53;;;;;;;2.10;1.33;;;;;;;;;;1034418;28;20026;-77
2022/11/04 01:07:24;;;;;;;2.83;0.82;;;;;;;;;;1034654;28;20057;-76
2022/11/04 01:07:56;;;;;;;4.00;0.98;;;;;;;;;;1033721;28;20030;-76
2022/11/04 01:08:27;;;;;;;2.22;0.70;;;;;;;;;;1030220;28;20097;-76
2022/11/04 01:08:59;;;;;;;0.90;0.60;;;;;;;;;;1030275;28;20390;-76
2022/11/04 01:09:30;;;;;;;1.67;0.80;;;;;;;;;;1030385;28;20030;-77
2022/11/04 01:10:01;;;;;;;1.95;0.95;;;;;;;;;;1030225;28;20109;-77
2022/11/04 01:10:34;;;;;;;2.30;1.00;;;;;;;;;;1030479;28;20113;-77
2022/11/04 01:11:05;;;;;;;1.77;0.70;;;;;;;;;;1030217;28;20022;-77
2022/11/04 01:11:36;;;;;;;1.63;0.95;;;;;;;;;;1030363;28;20023;-77
2022/11/04 01:12:07;;;;;;;1.35;0.80;;;;;;;;;;1030544;28;20027;-76
2022/11/04 01:12:38;;;;;;;1.10;0.77;;;;;;;;;;1030748;28;20033;-77
2022/11/04 01:13:09;;;;;;;1.05;0.70;;;;;;;;;;1030113;28;20520;-77
2022/11/04 01:13:41;;;;;;;1.73;0.80;;;;;;;;;;1026565;28;20122;-77
2022/11/04 01:14:11;;;;;;;3.22;0.90;;;;;;;;;;1022445;28;20027;-78
2022/11/04 01:14:42;;;;;;;1.15;0.88;;;;;;;;;;1026634;28;20065;-78
2022/11/04 01:15:13;;;;;;;1.40;0.70;;;;;;;;;;1026761;28;20031;-78
2022/11/04 01:15:44;;;;;;;2.40;0.80;;;;;;;;;;1034329;28;20026;-76
2022/11/04 01:16:15;;;;;;;1.20;0.80;;;;;;;;;;1030569;28;20027;-77
2022/11/04 01:16:48;;;;;;;1.30;0.80;;;;;;;;;;1030913;28;20371;-77
2022/11/04 01:17:19;;;;;;;1.13;0.80;;;;;;;;;;1030600;28;20030;-77
2022/11/04 01:17:50;;;;;;;1.40;0.70;;;;;;;;;;1030449;28;20022;-76
2022/11/04 01:18:21;;;;;;;0.70;0.63;;;;;;;;;;1030348;28;20441;-77
2022/11/04 01:18:52;;;;;;;1.95;0.82;;;;;;;;;;1030499;28;20186;-76
2022/11/04 01:19:23;;;;;;;1.55;0.68;;;;;;;;;;1030204;28;20026;-76
2022/11/04 01:19:54;;;;;;;0.70;0.68;;;;;;;;;;1030586;28;20118;-79
2022/11/04 01:20:25;;;;;;;1.10;0.63;;;;;;;;;;1030223;28;20596;-76
2022/11/04 01:21:06;;;;;;;4.50;0.90;;;;;;;;;;1030329;28;20022;-76
2022/11/04 01:21:37;;;;;;;1.35;0.60;;;;;;;;;;1030453;28;20795;-77
2022/11/04 01:22:08;;;;;;;1.15;0.75;;;;;;;;;;1029079;28;20102;-77
2022/11/04 01:22:39;;;;;;;1.25;0.70;;;;;;;;;;1030810;28;20061;-76
2022/11/04 01:23:10;;;;;;;1.35;0.70;;;;;;;;;;1030441;28;20018;-79
2022/11/04 01:23:42;;;;;;;0.98;0.68;;;;;;;;;;1030476;28;20338;-76
2022/11/04 01:24:13;;;;;;;1.90;0.68;;;;;;;;;;1030359;28;20093;-76
2022/11/04 01:24:43;;;;;;;2.28;1.00;;;;;;;;;;1026712;28;20014;-76
2022/11/04 01:25:14;;;;;;;1.75;0.73;;;;;;;;;;1030276;28;20519;-76
2022/11/04 01:25:45;;;;;;;1.63;0.93;;;;;;;;;;1026061;28;20429;-77
2022/11/04 01:26:18;;;;;;;1.10;0.70;;;;;;;;;;1026851;28;20114;-77
2022/11/04 01:26:50;;;;;;;1.92;0.90;;;;;;;;;;1027330;28;20023;-77
2022/11/04 01:27:22;;;;;;;3.42;0.85;;;;;;;;;;1028133;28;20015;-77
2022/11/04 01:27:53;;;;;;;0.80;0.70;;;;;;;;;;1028948;28;20049;-77
2022/11/04 01:28:24;;;;;;;1.33;0.60;;;;;;;;;;1031497;28;20028;-77
2022/11/04 01:28:55;;;;;;;0.95;0.60;;;;;;;;;;1030917;28;20041;-77
2022/11/04 01:29:26;;;;;;;1.45;0.60;;;;;;;;;;1031191;28;20006;-76
2022/11/04 01:29:57;;;;;;;2.92;0.80;;;;;;;;;;1031099;28;20026;-77
2022/11/04 01:30:28;;;;;;;2.25;0.80;;;;;;;;;;1031440;28;20105;-77
2022/11/04 01:30:59;;;;;;;1.05;0.57;;;;;;;;;;1030795;28;20010;-76
2022/11/04 01:31:30;;;;;;;3.45;0.88;;;;;;;;;;1031377;28;20026;-77
2022/11/04 01:32:01;;;;;;;2.45;0.75;;;;;;;;;;1031146;28;20498;-77
2022/11/04 01:32:32;;;;;;;5.57;0.80;;;;;;;;;;1031047;28;20595;-77
2022/11/04 01:33:03;;;;;;;1.25;0.80;;;;;;;;;;1031617;28;20021;-76
2022/11/04 01:33:34;;;;;;;5.57;1.13;;;;;;;;;;1031695;28;20022;-77
2022/11/04 01:34:06;;;;;;;4.05;1.00;;;;;;;;;;1030767;28;20516;-76
2022/11/04 01:34:36;;;;;;;1.27;0.80;;;;;;;;;;1031279;28;20049;-77
2022/11/04 01:35:08;;;;;;;0.98;0.73;;;;;;;;;;1031058;28;20026;-79
2022/11/04 01:35:40;;;;;;;0.85;0.60;;;;;;;;;;1031349;28;20045;-77
2022/11/04 01:36:11;;;;;;;2.10;1.10;;;;;;;;;;1027385;28;20042;-77
2022/11/04 01:36:42;;;;;;;2.83;1.40;;;;;;;;;;1031552;28;20130;-77
2022/11/04 01:37:13;;;;;;;1.48;0.90;;;;;;;;;;1026667;28;20019;-77
2022/11/04 01:37:44;;;;;;;1.65;0.70;;;;;;;;;;1027544;28;20031;-77
2022/11/04 01:38:15;;;;;;;0.98;0.50;;;;;;;;;;1027046;28;20011;-77
2022/11/04 01:38:47;;;;;;;0.95;0.80;;;;;;;;;;1027628;28;20404;-77
2022/11/04 01:39:18;;;;;;;1.70;0.80;;;;;;;;;;1028095;28;20117;-77
2022/11/04 01:39:49;;;;;;;1.23;0.82;;;;;;;;;;1031401;28;20109;-77
2022/11/04 01:40:20;;;;;;;2.15;0.70;;;;;;;;;;1031220;28;20109;-78
2022/11/04 01:40:51;;;;;;;1.90;0.80;;;;;;;;;;1029011;28;20078;-79
2022/11/04 01:41:23;;;;;;;1.13;0.70;;;;;;;;;;1031015;28;20072;-77
2022/11/04 01:41:54;;;;;;;1.15;0.77;;;;;;;;;;1031211;28;20032;-78
2022/11/04 01:42:25;;;;;;;1.38;0.90;;;;;;;;;;1028676;28;20026;-79
2022/11/04 01:42:56;;;;;;;1.80;0.90;;;;;;;;;;1031123;28;20037;-77
2022/11/04 01:43:48;;;;;;;1.17;0.85;;;;;;;;;;1035283;28;20045;-77
2022/11/04 01:44:38;;;;;;;0.80;0.50;;;;;;;;;;1030072;28;20044;-78
2022/11/04 01:45:13;;;;;;;2.15;1.00;;;;;;;;;;1031338;28;20050;-78
2022/11/04 01:45:45;;;;;;;1.17;0.80;;;;;;;;;;1027133;28;20019;-78
2022/11/04 01:46:26;;;;;;;1.52;0.90;;;;;;;;;;1030022;28;20053;-78
2022/11/04 01:46:58;;;;;;;0.95;0.70;;;;;;;;;;1027052;28;20027;-78
2022/11/04 01:47:36;;;;;;;1.27;0.80;;;;;;;;;;1027869;28;20027;-78
2022/11/04 01:48:12;;;;;;;4.50;0.82;;;;;;;;;;1027335;28;20049;-78
2022/11/04 01:48:43;;;;;;;2.15;1.20;;;;;;;;;;1029315;28;20066;-78
2022/11/04 01:49:35;;;;;;;0.82;0.80;;;;;;;;;;1028800;28;20026;-78
2022/11/04 01:50:08;;;;;;;1.35;0.95;;;;;;;;;;1023099;29;20020;-78
2022/11/04 01:50:39;;;;;;;0.88;0.80;;;;;;;;;;1023337;28;20098;-78
2022/11/04 01:51:10;;;;;;;1.45;0.80;;;;;;;;;;1030420;28;20033;-78
2022/11/04 01:51:42;;;;;;;0.95;0.80;;;;;;;;;;1030933;28;20042;-78
2022/11/04 01:52:16;;;;;;;1.00;0.80;;;;;;;;;;1031453;28;20022;-78
2022/11/04 01:53:07;;;;;;;1.05;0.90;;;;;;;;;;1031046;28;20029;-78
2022/11/04 01:53:40;;;;;;;2.75;1.33;;;;;;;;;;1031268;28;20481;-79
2022/11/04 01:54:11;;;;;;;1.42;0.73;;;;;;;;;;1031125;28;20041;-77
2022/11/04 01:54:44;;;;;;;1.27;0.85;;;;;;;;;;1031283;28;20030;-77
2022/11/04 01:55:18;;;;;;;1.35;0.90;;;;;;;;;;1027812;28;20031;-76
2022/11/04 01:55:55;;;;;;;1.60;0.90;;;;;;;;;;1027213;28;20054;-78
2022/11/04 01:56:26;;;;;;;0.95;0.85;;;;;;;;;;1026929;28;20762;-78
2022/11/04 01:57:00;;;;;;;1.65;1.35;;;;;;;;;;1028531;28;20038;-78
2022/11/04 01:57:36;;;;;;;3.75;1.02;;;;;;;;;;1028417;28;20045;-77
2022/11/04 01:58:09;;;;;;;1.50;1.00;;;;;;;;;;1030968;28;20023;-78
2022/11/04 01:58:43;;;;;;;1.90;1.00;;;;;;;;;;1032984;28;20054;-78
2022/11/04 01:59:21;;;;;;;3.47;1.23;;;;;;;;;;1034079;28;20416;-79
2022/11/04 01:59:52;;;;;;;3.22;1.02;;;;;;;;;;1030036;28;20117;-78
2022/11/04 02:00:23;;;;;;;1.52;1.00;;;;;;;;;;1026871;28;20069;-78
2022/11/04 02:00:54;;;;;;;1.75;1.48;;;;;;;;;;1027448;28;20110;-78
2022/11/04 02:01:25;;;;;;;1.70;1.40;;;;;;;;;;1027212;28;20049;-78
2022/11/04 02:01:56;;;;;;;1.55;1.00;;;;;;;;;;1027557;28;20249;-78
2022/11/04 02:02:27;;;;;;;2.53;1.27;;;;;;;;;;1031012;28;20113;-77
2022/11/04 02:02:59;;;;;;;2.45;1.40;;;;;;;;;;1031110;28;20061;-77
2022/11/04 02:03:38;;;;;;;1.42;1.10;;;;;;;;;;1027353;28;20162;-77
2022/11/04 02:04:25;;;;;;;1.95;0.93;;;;;;;;;;1031285;28;20097;-77
2022/11/04 02:04:56;;;;;;;1.85;0.90;;;;;;;;;;1027017;28;20015;-77
2022/11/04 02:05:29;;;;;;;4.38;1.30;;;;;;;;;;1030596;28;20027;-77
2022/11/04 02:06:01;;;;;;;1.10;0.80;;;;;;;;;;1027187;28;20015;-78
2022/11/04 02:06:32;;;;;;;1.63;0.90;;;;;;;;;;1029333;28;20540;-78
2022/11/04 02:07:05;;;;;;;0.98;0.80;;;;;;;;;;1031167;28;20717;-77
2022/11/04 02:07:37;;;;;;;1.35;1.05;;;;;;;;;;1030192;28;20010;-78
2022/11/04 02:08:08;;;;;;;1.17;0.70;;;;;;;;;;1027988;28;20019;-78
2022/11/04 02:08:40;;;;;;;1.70;0.95;;;;;;;;;;1031733;28;20533;-78
2022/11/04 02:09:12;;;;;;;1.50;1.08;;;;;;;;;;1035196;28;20018;-77
2022/11/04 02:09:43;;;;;;;2.55;1.08;;;;;;;;;;1031116;28;20019;-76
2022/11/04 02:10:15;;;;;;;3.65;1.48;;;;;;;;;;1030696;28;20014;-78
2022/11/04 02:10:55;;;;;;;3.03;1.35;;;;;;;;;;1027474;28;20363;-78
2022/11/04 02:13:05;;;;;;;1.35;0.90;;;;;;;;;;1034383;28;20167;-78
2022/11/04 02:13:36;;;;;;;1.27;0.90;;;;;;;;;;1031549;28;20171;-78
2022/11/04 02:14:07;;;;;;;1.33;0.98;;;;;;;;;;1031469;28;20501;-78
2022/11/04 02:14:39;;;;;;;2.65;1.55;;;;;;;;;;1031472;28;20462;-78
2022/11/04 02:15:10;;;;;;;1.27;0.93;;;;;;;;;;1033480;28;20026;-77
2022/11/04 02:15:50;;;;;;;0.80;0.60;;;;;;;;;;1031217;28;20037;-78
2022/11/04 02:16:38;;;;;;;1.05;0.88;;;;;;;;;;1023304;29;20137;-78
2022/11/04 02:17:14;;;;;;;1.40;1.00;;;;;;;;;;1026599;28;20046;-77
2022/11/04 02:17:57;;;;;;;1.10;0.82;;;;;;;;;;1031207;28;20033;-77
2022/11/04 02:18:43;;;;;;;2.72;1.00;;;;;;;;;;1031004;28;20069;-78
2022/11/04 02:19:30;;;;;;;1.70;1.00;;;;;;;;;;1031373;28;20097;-78
2022/11/04 02:20:13;;;;;;;1.65;0.75;;;;;;;;;;1031087;28;20611;-78
2022/11/04 02:20:59;;;;;;;1.25;0.63;;;;;;;;;;1031326;28;20030;-78
2022/11/04 02:21:56;;;;;;;1.85;0.95;;;;;;;;;;1027175;28;20030;-78
2022/11/04 02:22:27;;;;;;;;;;;;;;;;;;1027813;28;20146;-77
2022/11/04 02:23:11;;;;;;;2.17;1.10;;;;;;;;;;1027755;28;19914;-77
2022/11/04 02:23:42;;;;;;;3.45;1.23;;;;;;;;;;1031110;28;20285;-77
2022/11/04 02:24:22;;;;;;;1.92;1.10;;;;;;;;;;1033011;28;20102;-77
2022/11/04 02:25:02;;;;;;;1.75;0.93;;;;;;;;;;1035102;28;20034;-76
2022/11/04 02:25:33;;;;;;;2.03;1.30;;;;;;;;;;1029215;28;20034;-78
2022/11/04 02:26:16;;;;;;;1.75;1.00;;;;;;;;;;1031475;28;20026;-76
2022/11/04 02:26:47;;;;;;;2.60;1.38;;;;;;;;;;1031704;28;20037;-76
2022/11/04 02:27:38;;;;;;;1.65;1.00;;;;;;;;;;1031263;28;20101;-77
2022/11/04 02:28:21;;;;;;;2.38;1.30;;;;;;;;;;1031474;28;20066;-78
2022/11/04 02:29:01;;;;;;;2.83;1.13;;;;;;;;;;1031064;28;20026;-77
2022/11/04 02:29:32;;;;;;;3.35;1.10;;;;;;;;;;1026950;28;20133;-78
2022/11/04 02:30:07;;;;;;;1.20;1.10;;;;;;;;;;1027091;28;20027;-76
2022/11/04 02:30:46;;;;;;;1.85;0.88;;;;;;;;;;1029140;28;20031;-78
2022/11/04 02:31:32;;;;;;;1.35;1.25;;;;;;;;;;1031011;28;20057;-76
2022/11/04 02:32:18;;;;;;;3.97;2.20;;;;;;;;;;1032487;28;20087;-76
2022/11/04 02:32:54;;;;;;;1.88;1.25;;;;;;;;;;1028879;28;20041;-77
2022/11/04 02:33:33;;;;;;;4.68;2.17;;;;;;;;;;1031052;28;20023;-78
2022/11/04 02:34:10;;;;;;;1.52;1.25;;;;;;;;;;1034746;28;20309;-77
2022/11/04 02:34:52;;;;;;;2.47;1.30;;;;;;;;;;1032835;28;20085;-78
2022/11/04 02:35:25;;;;;;;1.65;1.55;;;;;;;;;;1031037;28;20030;-78
2022/11/04 02:36:02;;;;;;;3.00;1.85;;;;;;;;;;1032514;28;20110;-77
2022/11/04 02:36:33;;;;;;;3.20;1.98;;;;;;;;;;1035612;28;20030;-77
2022/11/04 02:37:20;;;;;;;2.50;1.50;;;;;;;;;;1035265;28;20038;-78
2022/11/04 02:38:10;;;;;;;1.85;1.65;;;;;;;;;;1026904;28;20043;-78
2022/11/04 02:38:54;;;;;;;3.65;1.33;;;;;;;;;;1028082;28;20477;-77
2022/11/04 02:39:38;;;;;;;3.53;2.10;;;;;;;;;;1031317;28;20417;-77
2022/11/04 02:40:27;;;;;;;3.10;2.00;;;;;;;;;;1032265;28;20030;-79
2022/11/04 02:41:13;;;;;;;2.97;2.10;;;;;;;;;;1030428;28;20042;-78
2022/11/04 02:41:56;;;;;;;2.58;1.90;;;;;;;;;;1023308;28;20027;-77
2022/11/04 02:42:44;;;;;;;2.85;2.20;;;;;;;;;;1022696;29;20043;-77
2022/11/04 02:43:20;;;;;;;3.10;2.33;;;;;;;;;;1026761;28;20659;-78
2022/11/04 02:44:03;;;;;;;2.83;1.40;;;;;;;;;;1034977;28;20022;-78
2022/11/04 02:44:37;;;;;;;2.75;2.03;;;;;;;;;;1039100;28;20749;-77
2022/11/04 02:45:12;;;;;;;4.80;2.88;;;;;;;;;;1035672;28;20034;-77
2022/11/04 02:45:45;;;;;;;16.08;3.20;;;;;;;;;;1027343;28;20035;-78
2022/11/04 02:46:21;;;;;;;4.80;2.60;;;;;;;;;;1026772;28;20027;-78
2022/11/04 02:47:00;;;;;;;4.50;2.65;;;;;;;;;;1024200;28;20030;-77
2022/11/04 02:47:32;;;;;;;3.72;2.38;;;;;;;;;;1026709;28;20038;-79
2022/11/04 02:48:23;;;;;;;2.72;1.77;;;;;;;;;;1029245;28;20493;-77
2022/11/04 02:48:54;;;;;;;3.78;2.22;;;;;;;;;;1029676;28;20026;-77
2022/11/04 02:49:35;;;;;;;5.90;2.58;;;;;;;;;;1031423;28;20022;-78
2022/11/04 02:50:06;;;;;;;3.05;2.10;;;;;;;;;;1031246;28;20069;-79
2022/11/04 02:50:42;;;;;;;4.43;2.65;;;;;;;;;;1027898;28;20090;-78
2022/11/04 02:51:26;;;;;;;2.95;2.17;;;;;;;;;;1026998;28;20026;-78
2022/11/04 02:52:04;;;;;;;3.10;2.42;;;;;;;;;;1026884;28;20153;-78
2022/11/04 02:52:52;;;;;;;2.63;1.92;;;;;;;;;;1034054;28;20097;-78
2022/11/04 02:53:29;;;;;;;4.13;2.38;;;;;;;;;;1030998;28;20769;-77
2022/11/04 02:54:11;;;;;;;3.70;2.30;;;;;;;;;;1030702;28;20105;-78
2022/11/04 02:54:47;;;;;;;2.42;1.92;;;;;;;;;;1031338;28;20147;-78
2022/11/04 02:55:30;;;;;;;4.07;2.47;;;;;;;;;;1030759;28;20022;-78
2022/11/04 02:56:02;;;;;;;3.08;2.15;;;;;;;;;;1027014;28;20026;-79
2022/11/04 02:56:35;;;;;;;2.85;2.45;;;;;;;;;;1026832;28;20454;-78
2022/11/04 02:57:07;;;;;;;5.38;3.60;;;;;;;;;;1027500;28;20045;-78
2022/11/04 02:57:39;;;;;;;4.38;2.33;;;;;;;;;;1031136;28;20530;-78
2022/11/04 02:58:13;;;;;;;3.30;2.28;;;;;;;;;;1030856;28;20023;-79
2022/11/04 02:58:47;;;;;;;3.20;2.78;;;;;;;;;;1031314;28;20045;-79
2022/11/04 02:59:31;;;;;;;3.42;2.30;;;;;;;;;;1030639;28;20014;-78
2022/11/04 03:00:09;;;;;;;4.05;3.00;;;;;;;;;;1031520;28;20398;-78
2022/11/04 03:00:41;;;;;;;4.75;3.25;;;;;;;;;;1036136;28;20076;-78
2022/11/04 03:01:14;;;;;;;5.20;3.90;;;;;;;;;;1034832;28;20026;-78
2022/11/04 03:01:46;;;;;;;4.70;3.13;;;;;;;;;;1031028;28;20125;-78
2022/11/04 03:02:19;;;;;;;3.95;2.67;;;;;;;;;;1029253;28;20046;-78
2022/11/04 03:02:52;;;;;;;6.50;3.10;;;;;;;;;;1027997;28;20345;-78
2022/11/04 03:03:27;;;;;;;3.75;3.20;;;;;;;;;;1026832;28;20505;-77
2022/11/04 03:04:04;;;;;;;4.03;2.53;;;;;;;;;;1028211;28;20019;-77
2022/11/04 03:04:38;;;;;;;7.15;4.20;;;;;;;;;;1026709;28;20117;-77
2022/11/04 03:05:11;;;;;;;4.45;3.35;;;;;;;;;;1029426;28;20486;-78
2022/11/04 03:05:45;;;;;;;7.65;3.95;;;;;;;;;;1030342;28;20026;-77
2022/11/04 03:06:18;;;;;;;5.65;3.53;;;;;;;;;;1035028;28;20085;-77
2022/11/04 03:06:50;;;;;;;4.15;3.67;;;;;;;;;;1034088;28;20780;-77
2022/11/04 03:07:25;;;;;;;6.28;4.30;;;;;;;;;;1034724;28;20037;-76
2022/11/04 03:08:00;;;;;;;7.13;4.20;;;;;;;;;;1030883;28;20038;-77
2022/11/04 03:08:33;;;;;;;5.55;3.92;;;;;;;;;;1032151;28;20026;-77
2022/11/04 03:09:04;;;;;;;6.03;4.35;;;;;;;;;;1033315;28;20026;-77
2022/11/04 03:09:36;;;;;;;5.60;4.28;;;;;;;;;;1027778;28;20034;-77
2022/11/04 03:10:11;;;;;;;5.63;4.28;;;;;;;;;;1030935;28;20030;-77
2022/11/04 03:10:43;;;;;;;5.40;4.40;;;;;;;;;;1026728;28;20030;-78
2022/11/04 03:11:16;;;;;;;6.03;4.70;;;;;;;;;;1023881;28;20063;-78
2022/11/04 03:11:49;;;;;;;5.00;4.28;;;;;;;;;;1022787;29;20041;-78
2022/11/04 03:12:22;;;;;;;6.55;4.20;;;;;;;;;;1023603;28;20027;-78
2022/11/04 03:13:00;;;;;;;4.93;4.05;;;;;;;;;;1026783;28;20065;-79
2022/11/04 03:13:38;;;;;;;7.82;3.35;;;;;;;;;;1028713;28;20022;-78
2022/11/04 03:14:15;;;;;;;5.82;4.18;;;;;;;;;;1030193;28;20812;-79
2022/11/04 03:14:51;;;;;;;5.00;3.65;;;;;;;;;;1030918;28;20125;-78
2022/11/04 03:15:26;;;;;;;4.22;3.25;;;;;;;;;;1031246;28;20509;-78
2022/11/04 03:15:59;;;;;;;6.05;3.88;;;;;;;;;;1029685;28;20090;-77
2022/11/04 03:16:48;;;;;;;6.60;4.00;;;;;;;;;;1031119;28;20591;-77
2022/11/04 03:17:21;;;;;;;5.38;4.10;;;;;;;;;;1031173;28;20030;-78
2022/11/04 03:17:55;;;;;;;4.45;3.88;;;;;;;;;;1031145;28;20472;-78
2022/11/04 03:18:34;;;;;;;6.47;4.80;;;;;;;;;;1030878;28;20030;-77
2022/11/04 03:19:12;;;;;;;8.73;4.93;;;;;;;;;;1030774;28;20039;-77
2022/11/04 03:19:53;;;;;;;8.68;5.88;;;;;;;;;;1030974;28;20022;-78
2022/11/04 03:20:26;;;;;;;6.00;4.47;;;;;;;;;;1031646;28;20114;-77
2022/11/04 03:20:58;;;;;;;7.25;5.35;;;;;;;;;;1031170;28;20390;-80
2022/11/04 03:21:32;;;;;;;5.28;4.35;;;;;;;;;;1027184;28;20046;-79
2022/11/04 03:22:14;;;;;;;6.30;5.65;;;;;;;;;;1027145;28;20446;-78
2022/11/04 03:22:46;;;;;;;7.57;5.00;;;;;;;;;;1030284;28;20018;-79
2022/11/04 03:23:17;;;;;;;6.68;5.60;;;;;;;;;;1031008;28;20022;-78
2022/11/04 03:23:48;;;;;;;5.20;4.57;;;;;;;;;;1031066;28;20109;-78
2022/11/04 03:24:19;;;;;;;8.07;6.20;;;;;;;;;;1030751;28;20010;-78
2022/11/04 03:24:50;;;;;;;6.32;4.78;;;;;;;;;;1031308;28;20014;-79
2022/11/04 03:25:24;;;;;;;5.22;4.70;;;;;;;;;;1030998;28;20076;-78
2022/11/04 03:25:57;;;;;;;5.72;5.13;;;;;;;;;;1026916;28;20077;-78
2022/11/04 03:26:31;;;;;;;6.60;5.53;;;;;;;;;;1026479;28;20358;-78
2022/11/04 03:27:08;;;;;;;7.18;6.10;;;;;;;;;;1024364;28;20030;-78
2022/11/04 03:27:47;;;;;;;7.80;5.50;;;;;;;;;;1024436;28;20560;-78
2022/11/04 03:28:20;;;;;;;6.28;4.35;;;;;;;;;;1023274;29;20019;-78
2022/11/04 03:29:02;;;;;;;6.63;5.30;;;;;;;;;;1021326;29;20063;-78
2022/11/04 03:29:35;;;;;;;7.15;6.05;;;;;;;;;;1027860;28;20029;-78
2022/11/04 03:30:08;;;;;;;6.78;6.07;;;;;;;;;;1027137;28;20023;-78
2022/11/04 03:30:42;;;;;;;7.97;5.60;;;;;;;;;;1029234;28;20014;-78
2022/11/04 03:31:20;;;;;;;6.32;5.47;;;;;;;;;;1030057;28;20015;-78
2022/11/04 03:31:51;;;;;;;6.93;5.40;;;;;;;;;;1030260;28;20015;-79
2022/11/04 03:32:27;;;;;;;8.30;5.20;;;;;;;;;;1034930;28;20014;-78
2022/11/04 03:33:15;;;;;;;8.27;6.32;;;;;;;;;;1030545;28;20552;-79
2022/11/04 03:33:50;;;;;;;7.85;6.22;;;;;;;;;;1030941;28;20023;-78
2022/11/04 03:34:21;;;;;;;7.35;5.82;;;;;;;;;;1030866;28;20258;-78
2022/11/04 03:34:52;;;;;;;8.38;7.07;;;;;;;;;;1030999;28;20463;-79
2022/11/04 03:35:24;;;;;;;7.28;6.43;;;;;;;;;;1031146;28;20058;-78
2022/11/04 03:35:55;;;;;;;8.27;5.65;;;;;;;;;;1030729;28;20018;-79
2022/11/04 03:36:28;;;;;;;8.30;6.50;;;;;;;;;;1030835;28;20101;-78
2022/11/04 03:36:59;;;;;;;10.70;8.05;;;;;;;;;;1030271;28;20010;-78
2022/11/04 03:37:30;;;;;;;7.03;5.43;;;;;;;;;;1030850;28;20077;-79
2022/11/04 03:38:01;;;;;;;8.80;6.40;;;;;;;;;;1031109;28;20125;-78
2022/11/04 03:38:32;;;;;;;8.68;7.22;;;;;;;;;;1031113;28;20022;-78
2022/11/04 03:39:03;;;;;;;8.38;7.15;;;;;;;;;;1030652;28;20050;-78
2022/11/04 03:39:34;;;;;;;9.27;7.47;;;;;;;;;;1030858;28;20027;-78
2022/11/04 03:40:06;;;;;;;9.90;8.00;;;;;;;;;;1030328;28;20037;-79
2022/11/04 03:40:37;;;;;;;9.38;8.40;;;;;;;;;;1034547;28;20105;-78
2022/11/04 03:41:12;;;;;;;12.88;9.77;;;;;;;;;;1031011;28;20080;-78